Briefing drone pour La roche-sur-foron

Rechercher une autre localisation

Conditions de vol :


Nous sommes le : Jeudi 17 juin 2021
Il est 01:29 UTC (03:29 LT)

Lever de soleil : 03:17 UTC (05:17 LT)
Coucher de soleil : 19:54 UTC (21:54 LT)

Météo

L'essentiel des conditions de vol

VIGILANCE MÉTÉO FRANCE - Haute-Savoie (74)
Vigilance Jaune : Orages
CARTE TEMSI
CARTES DES FRONTS
METAR de LFLP
LFLP 170100Z AUTO 03004KT CAVOK 18/15 Q1014

Date d'émission: 17/06/2021
Heure d'émission: 01:00 UTC
Vent: 030° pour 4 KT (7 km/h)
Visibilité horizontale: > 10 km
Plafond : Plafond et visibilité OK (CAVOK)
Température: 18 °C
Point de rosée: 15 °C
Humidité: 83%
Pression (QNH): 1014 hPa
TAF de LFLP
AMD LFLP 161901Z 1619/1715 CNL

Conditions prévues :

Heure d'émission : Bulletin éffectué le 16 à 19:00 UTC
Prévision : Valide du 16 a 19:00 UTC au 17 a 15:00 UTC
Nuages : à 0ft (0 m)
WEBCAM POUR LA ROCHE-SUR-FORON

Réglementation

Voler en sécurité

CARTES AERONAUTIQUE 1/500.000
CARTES VAC (LFLP)
SUP AIP




Chargement des AIP...
NOTAM (LA ROCHE-SUR-FORON + Terrain à proximité / FIR )




Chargement des NOTAMS...
CONTACT PREFECTURE 74


Avertissement : Les données mises à disposition sont indicatives. Oxygène Drone ne pourra être tenu responsable de dégâts causés aux biens et aux personnes.